createdAt,value
2023-04-27T00:00:24.820Z,5.89
2023-04-27T00:00:55.708Z,5.83
2023-04-27T00:01:26.566Z,5.54
2023-04-27T00:01:57.674Z,5.50
2023-04-27T00:02:28.318Z,5.73
2023-04-27T00:02:59.306Z,4.41
2023-04-27T00:03:30.263Z,6.42
2023-04-27T00:04:00.798Z,5.98
2023-04-27T00:04:31.316Z,6.22
2023-04-27T00:05:02.473Z,5.46
2023-04-27T00:05:33.130Z,5.76
2023-04-27T00:06:03.756Z,5.93
2023-04-27T00:06:34.260Z,6.33
2023-04-27T00:07:05.129Z,6.31
2023-04-27T00:07:36.027Z,5.79
2023-04-27T00:08:06.889Z,5.30
2023-04-27T00:08:38.115Z,5.43
2023-04-27T00:09:08.546Z,5.76
2023-04-27T00:09:39.508Z,5.66
2023-04-27T00:10:10.438Z,5.76
2023-04-27T00:10:41.407Z,5.57
2023-04-27T00:11:12.378Z,6.22
2023-04-27T00:11:43.249Z,5.61
2023-04-27T00:12:14.113Z,6.01
2023-04-27T00:12:44.971Z,6.01
2023-04-27T00:13:15.872Z,6.31
2023-04-27T00:13:46.734Z,5.50
2023-04-27T00:14:17.655Z,5.50
2023-04-27T00:14:48.665Z,5.48
2023-04-27T00:15:19.128Z,5.57
2023-04-27T00:15:50.150Z,5.66
2023-04-27T00:16:20.671Z,5.80
2023-04-27T00:16:51.202Z,6.02
2023-04-27T00:17:21.708Z,7.11
2023-04-27T00:17:52.719Z,6.11
2023-04-27T00:18:23.190Z,6.22
2023-04-27T00:18:54.061Z,5.33
2023-04-27T00:19:24.999Z,6.07
2023-04-27T00:19:55.882Z,5.71
2023-04-27T00:20:26.757Z,5.68
2023-04-27T00:20:57.651Z,6.07
2023-04-27T00:21:28.521Z,5.98
2023-04-27T00:21:59.559Z,5.75
2023-04-27T00:22:30.186Z,5.68
2023-04-27T00:23:00.715Z,5.83
2023-04-27T00:23:31.354Z,5.30
2023-04-27T00:24:01.887Z,5.72
2023-04-27T00:24:32.613Z,5.29
2023-04-27T00:25:03.121Z,6.48
2023-04-27T00:25:34.126Z,5.07
2023-04-27T00:26:04.574Z,6.56
2023-04-27T00:26:35.499Z,5.80
2023-04-27T00:27:06.384Z,6.01
2023-04-27T00:27:37.245Z,5.68
2023-04-27T00:28:08.115Z,5.99
2023-04-27T00:28:39.532Z,6.33
2023-04-27T00:29:10.055Z,5.80
2023-04-27T00:29:40.687Z,5.61
2023-04-27T00:30:11.265Z,5.57
2023-04-27T00:30:41.706Z,5.46
2023-04-27T00:31:12.714Z,6.01
2023-04-27T00:31:43.261Z,5.05
2023-04-27T00:32:14.108Z,6.07
2023-04-27T00:32:44.531Z,6.31
2023-04-27T00:33:15.427Z,6.19
2023-04-27T00:33:46.295Z,5.61
2023-04-27T00:34:17.162Z,5.84
2023-04-27T00:34:48.027Z,6.79
2023-04-27T00:35:18.925Z,5.29
2023-04-27T00:35:49.928Z,6.17
2023-04-27T00:36:20.870Z,6.85
2023-04-27T00:36:51.827Z,5.65
2023-04-27T00:37:22.775Z,6.19
2023-04-27T00:37:53.740Z,6.26
2023-04-27T00:38:24.605Z,5.98
2023-04-27T00:38:55.489Z,5.94
2023-04-27T00:39:26.388Z,5.48
2023-04-27T00:39:57.251Z,5.83
2023-04-27T00:40:28.115Z,5.69
2023-04-27T00:40:58.976Z,5.68
2023-04-27T00:41:29.988Z,5.91
2023-04-27T00:42:00.418Z,5.97
2023-04-27T00:42:31.449Z,5.64
2023-04-27T00:43:01.897Z,6.24
2023-04-27T00:43:33.115Z,6.16
2023-04-27T00:44:03.636Z,6.09
2023-04-27T00:44:34.264Z,5.61
2023-04-27T00:45:04.763Z,5.38
2023-04-27T00:45:35.667Z,6.07
2023-04-27T00:46:06.548Z,5.75
2023-04-27T00:46:37.452Z,5.57
2023-04-27T00:47:08.330Z,5.98
2023-04-27T00:47:39.221Z,6.11
2023-04-27T00:48:10.241Z,5.93
2023-04-27T00:48:41.441Z,5.15
2023-04-27T00:49:12.060Z,5.02
2023-04-27T00:49:42.716Z,5.91
2023-04-27T00:50:13.228Z,6.44
2023-04-27T00:50:43.917Z,5.64
2023-04-27T00:51:14.351Z,6.09
2023-04-27T00:51:45.419Z,5.36
2023-04-27T00:52:15.783Z,5.84
2023-04-27T00:52:46.646Z,5.36
2023-04-27T00:53:17.507Z,5.73
2023-04-27T00:53:48.373Z,5.64
2023-04-27T00:54:19.243Z,5.82
2023-04-27T00:54:50.148Z,5.11
2023-04-27T00:55:21.091Z,5.51
2023-04-27T00:55:52.014Z,4.66
2023-04-27T00:56:23.033Z,5.39
2023-04-27T00:56:53.469Z,5.90
2023-04-27T00:57:24.454Z,5.57
2023-04-27T00:57:54.962Z,5.00
2023-04-27T00:58:25.452Z,5.65
2023-04-27T00:58:56.342Z,5.54
2023-04-27T00:59:27.200Z,5.04
2023-04-27T00:59:58.056Z,5.21
2023-04-27T01:00:28.980Z,5.54
2023-04-27T01:00:59.904Z,5.05
2023-04-27T01:01:30.921Z,5.15
2023-04-27T01:02:01.380Z,6.46
2023-04-27T01:02:32.461Z,5.87
2023-04-27T01:03:03.450Z,5.84
2023-04-27T01:03:34.270Z,5.07
2023-04-27T01:04:04.762Z,4.74
2023-04-27T01:04:35.662Z,5.21
2023-04-27T01:05:06.127Z,5.04
2023-04-27T01:05:36.998Z,4.75
2023-04-27T01:06:07.878Z,5.38
2023-04-27T01:06:38.757Z,5.07
2023-04-27T01:07:09.623Z,5.43
2023-04-27T01:07:40.493Z,4.87
2023-04-27T01:08:11.416Z,4.58
2023-04-27T01:08:42.197Z,5.12
2023-04-27T01:09:13.383Z,5.28
2023-04-27T01:09:44.120Z,4.78
2023-04-27T01:10:15.049Z,4.67
2023-04-27T01:10:45.914Z,4.97
2023-04-27T01:11:16.797Z,4.58
2023-04-27T01:11:47.680Z,4.52
2023-04-27T01:12:18.559Z,5.38
2023-04-27T01:12:49.464Z,4.12
2023-04-27T01:13:20.346Z,4.73
2023-04-27T01:13:51.512Z,5.98
2023-04-27T01:14:21.955Z,4.90
2023-04-27T01:14:53.145Z,4.59
2023-04-27T01:15:23.656Z,5.43
2023-04-27T01:15:54.375Z,5.14
2023-04-27T01:16:24.953Z,5.56
2023-04-27T01:16:55.632Z,4.48
2023-04-27T01:17:26.075Z,4.75
2023-04-27T01:17:56.989Z,5.36
2023-04-27T01:18:27.951Z,5.33
2023-04-27T01:18:58.834Z,4.10
2023-04-27T01:19:29.735Z,4.52
2023-04-27T01:20:00.635Z,5.51
2023-04-27T01:20:31.638Z,4.17
2023-04-27T01:21:02.575Z,4.94
2023-04-27T01:21:33.606Z,5.25
2023-04-27T01:22:04.531Z,4.42
2023-04-27T01:22:35.463Z,5.20
2023-04-27T01:23:06.364Z,4.75
2023-04-27T01:23:37.283Z,4.62
2023-04-27T01:24:08.145Z,4.94
2023-04-27T01:24:39.002Z,4.58
2023-04-27T01:25:09.854Z,3.65
2023-04-27T01:25:40.752Z,4.82
2023-04-27T01:26:11.709Z,4.44
2023-04-27T01:26:42.634Z,4.71
2023-04-27T01:27:13.611Z,4.73
2023-04-27T01:27:44.493Z,4.14
2023-04-27T01:28:15.422Z,4.74
2023-04-27T01:28:46.354Z,3.95
2023-04-27T01:29:17.228Z,3.66
2023-04-27T01:29:48.108Z,4.38
2023-04-27T01:30:18.986Z,3.62
2023-04-27T01:30:49.905Z,4.02
2023-04-27T01:31:20.973Z,4.41
2023-04-27T01:31:51.420Z,3.51
2023-04-27T01:32:22.720Z,3.51
2023-04-27T01:32:53.221Z,4.23
2023-04-27T01:33:23.722Z,3.87
2023-04-27T01:33:54.274Z,4.02
2023-04-27T01:34:25.311Z,4.70
2023-04-27T01:34:55.792Z,4.37
2023-04-27T01:35:28.390Z,4.90
2023-04-27T01:35:57.398Z,4.26
2023-04-27T01:36:28.276Z,3.45
2023-04-27T01:36:59.142Z,4.30
2023-04-27T01:37:29.793Z,4.12
2023-04-27T01:38:00.672Z,4.62
2023-04-27T01:38:31.571Z,3.94
2023-04-27T01:39:02.579Z,4.68
2023-04-27T01:39:33.051Z,4.90
2023-04-27T01:40:03.991Z,4.99
2023-04-27T01:40:34.945Z,4.67
2023-04-27T01:41:05.879Z,4.28
2023-04-27T01:41:36.878Z,4.23
2023-04-27T01:42:07.314Z,3.83
2023-04-27T01:42:38.187Z,4.01
2023-04-27T01:43:09.082Z,4.17
2023-04-27T01:43:39.951Z,3.96
2023-04-27T01:44:10.814Z,4.01
2023-04-27T01:44:41.679Z,4.56
2023-04-27T01:45:12.800Z,3.92
2023-04-27T01:45:43.337Z,3.51
2023-04-27T01:46:13.876Z,4.22
2023-04-27T01:46:44.430Z,4.66
2023-04-27T01:47:14.961Z,4.30
2023-04-27T01:47:45.911Z,3.98
2023-04-27T01:48:16.921Z,4.45
2023-04-27T01:48:47.786Z,4.28
2023-04-27T01:49:18.697Z,4.35
2023-04-27T01:49:49.585Z,3.48
2023-04-27T01:50:20.448Z,3.60
2023-04-27T01:50:51.326Z,3.31
2023-04-27T01:51:22.207Z,3.99
2023-04-27T01:51:53.222Z,3.53
2023-04-27T01:52:24.207Z,4.56
2023-04-27T01:52:55.069Z,4.34
2023-04-27T01:53:26.009Z,4.06
2023-04-27T01:53:56.978Z,3.59
2023-04-27T01:54:28.681Z,4.23
2023-04-27T01:54:58.222Z,4.06
2023-04-27T01:55:29.112Z,4.49
2023-04-27T01:55:59.980Z,4.02
2023-04-27T01:56:30.863Z,2.69
2023-04-27T01:57:01.736Z,3.78
2023-04-27T01:57:32.603Z,3.87
2023-04-27T01:58:03.621Z,3.08
2023-04-27T01:58:34.310Z,4.31
2023-04-27T01:59:04.838Z,3.51
2023-04-27T01:59:35.489Z,3.05
2023-04-27T02:00:06.010Z,4.13
2023-04-27T02:00:36.654Z,4.37
2023-04-27T02:01:07.161Z,3.22
2023-04-27T02:01:37.982Z,4.02
2023-04-27T02:02:08.533Z,4.06
2023-04-27T02:02:39.050Z,3.76
2023-04-27T02:03:09.608Z,4.10
2023-04-27T02:03:40.218Z,3.84
2023-04-27T02:04:10.974Z,4.01
2023-04-27T02:04:41.675Z,3.42
2023-04-27T02:05:12.220Z,3.66
2023-04-27T02:05:43.088Z,3.62
2023-04-27T02:06:14.033Z,3.22
2023-04-27T02:06:45.045Z,3.77
2023-04-27T02:07:15.571Z,3.70
2023-04-27T02:07:46.021Z,3.58
2023-04-27T02:08:17.054Z,3.58
2023-04-27T02:08:47.518Z,4.44
2023-04-27T02:09:18.488Z,3.81
2023-04-27T02:09:49.351Z,3.50
2023-04-27T02:10:20.236Z,3.26
2023-04-27T02:10:51.111Z,3.14
2023-04-27T02:11:21.981Z,3.74
2023-04-27T02:11:52.850Z,4.02
2023-04-27T02:12:23.712Z,4.26
2023-04-27T02:12:54.650Z,3.87
2023-04-27T02:13:25.679Z,4.26
2023-04-27T02:13:56.167Z,4.32
2023-04-27T02:14:27.103Z,4.05
2023-04-27T02:14:58.062Z,3.68
2023-04-27T02:15:28.939Z,3.59
2023-04-27T02:15:59.857Z,3.37
2023-04-27T02:16:30.785Z,3.76
2023-04-27T02:17:01.259Z,4.56
2023-04-27T02:17:32.174Z,4.34
2023-04-27T02:18:03.096Z,3.66
2023-04-27T02:18:34.336Z,4.14
2023-04-27T02:19:04.835Z,4.41
2023-04-27T02:19:35.795Z,4.37
2023-04-27T02:20:06.746Z,3.37
2023-04-27T02:20:37.704Z,3.83
2023-04-27T02:21:08.662Z,3.73
2023-04-27T02:21:39.546Z,3.13
2023-04-27T02:22:10.421Z,3.62
2023-04-27T02:22:41.324Z,3.63
2023-04-27T02:23:12.192Z,4.05
2023-04-27T02:23:43.065Z,4.26
2023-04-27T02:24:13.949Z,2.92
2023-04-27T02:24:45.061Z,3.69
2023-04-27T02:25:15.542Z,3.48
2023-04-27T02:25:46.577Z,3.37
2023-04-27T02:26:17.125Z,2.85
2023-04-27T02:26:48.053Z,3.48
2023-04-27T02:27:19.001Z,3.08
2023-04-27T02:27:49.836Z,3.44
2023-04-27T02:28:20.711Z,3.87
2023-04-27T02:28:51.194Z,4.32
2023-04-27T02:29:22.156Z,3.69
2023-04-27T02:29:53.136Z,3.41
2023-04-27T02:30:23.897Z,3.53
2023-04-27T02:30:54.689Z,3.70
2023-04-27T02:31:25.658Z,3.76
2023-04-27T02:31:56.704Z,4.10
2023-04-27T02:32:27.227Z,3.70
2023-04-27T02:32:57.722Z,3.37
2023-04-27T02:33:28.218Z,3.74
2023-04-27T02:33:59.084Z,3.00
2023-04-27T02:34:29.972Z,3.34
2023-04-27T02:35:00.838Z,4.49
2023-04-27T02:35:31.699Z,4.23
2023-04-27T02:36:02.586Z,4.40
2023-04-27T02:36:33.484Z,4.14
2023-04-27T02:37:04.432Z,3.98
2023-04-27T02:37:35.367Z,3.51
2023-04-27T02:38:06.316Z,4.10
2023-04-27T02:38:37.263Z,3.47
2023-04-27T02:39:08.176Z,3.53
2023-04-27T02:39:39.164Z,4.87
2023-04-27T02:40:10.037Z,4.32
2023-04-27T02:40:40.886Z,3.70
2023-04-27T02:41:11.784Z,3.00
2023-04-27T02:41:42.700Z,3.78
2023-04-27T02:42:13.631Z,3.60
2023-04-27T02:42:44.648Z,3.47
2023-04-27T02:43:15.169Z,3.23
2023-04-27T02:43:45.692Z,3.29
2023-04-27T02:44:16.118Z,3.47
2023-04-27T02:44:47.065Z,3.76
2023-04-27T02:45:17.992Z,2.75
2023-04-27T02:45:48.995Z,3.63
2023-04-27T02:46:19.873Z,3.60
2023-04-27T02:46:50.793Z,3.11
2023-04-27T02:47:21.736Z,3.41
2023-04-27T02:47:52.688Z,3.81
2023-04-27T02:48:23.145Z,4.35
2023-04-27T02:48:54.035Z,3.96
2023-04-27T02:49:24.994Z,3.99
2023-04-27T02:49:55.915Z,4.04
2023-04-27T02:50:26.861Z,3.42
2023-04-27T02:50:57.826Z,2.80
2023-04-27T02:51:28.833Z,3.96
2023-04-27T02:51:59.342Z,3.16
2023-04-27T02:52:30.220Z,4.12
2023-04-27T02:53:01.100Z,3.99
2023-04-27T02:53:32.004Z,3.10
2023-04-27T02:54:02.884Z,2.92
2023-04-27T02:54:33.774Z,3.14
2023-04-27T02:55:04.636Z,3.78
2023-04-27T02:55:35.560Z,3.40
2023-04-27T02:56:06.720Z,3.23
2023-04-27T02:56:37.203Z,2.72
2023-04-27T02:57:08.350Z,3.18
2023-04-27T02:57:38.868Z,3.31
2023-04-27T02:58:10.019Z,3.58
2023-04-27T02:58:40.414Z,3.83
2023-04-27T02:59:11.319Z,3.42
2023-04-27T02:59:41.884Z,2.71
2023-04-27T03:00:12.795Z,3.05
2023-04-27T03:00:43.713Z,2.89
2023-04-27T03:01:14.644Z,2.92
2023-04-27T03:01:45.779Z,3.03
2023-04-27T03:02:16.354Z,4.13
2023-04-27T03:02:46.984Z,4.87
2023-04-27T03:03:17.695Z,3.55
2023-04-27T03:03:48.532Z,3.19
2023-04-27T03:04:19.274Z,2.31
2023-04-27T03:04:49.829Z,2.97
2023-04-27T03:05:20.285Z,2.65
2023-04-27T03:05:51.146Z,2.79
2023-04-27T03:06:22.007Z,2.83
2023-04-27T03:06:52.870Z,3.14
2023-04-27T03:07:23.748Z,3.55
2023-04-27T03:07:54.611Z,2.87
2023-04-27T03:08:25.649Z,3.73
2023-04-27T03:08:56.162Z,3.44
2023-04-27T03:09:26.608Z,3.08
2023-04-27T03:09:57.532Z,3.69
2023-04-27T03:10:28.467Z,3.31
2023-04-27T03:12:21.544Z,2.95
2023-04-27T03:12:52.064Z,3.48
2023-04-27T03:13:22.504Z,3.25
2023-04-27T03:13:53.363Z,3.13
2023-04-27T03:14:24.247Z,3.08
2023-04-27T03:14:55.123Z,2.90
2023-04-27T03:15:26.045Z,2.14
2023-04-27T03:15:56.963Z,2.87
2023-04-27T03:16:27.944Z,3.00
2023-04-27T03:16:58.892Z,3.21
2023-04-27T03:17:30.078Z,2.79
2023-04-27T03:18:00.642Z,2.77
2023-04-27T03:18:31.327Z,2.50
2023-04-27T03:19:01.833Z,2.83
2023-04-27T03:19:32.623Z,2.77
2023-04-27T03:20:03.123Z,2.74
2023-04-27T03:20:33.805Z,2.29
2023-04-27T03:21:04.180Z,3.28
2023-04-27T03:21:35.063Z,2.98
2023-04-27T03:22:05.924Z,3.41
2023-04-27T03:22:36.792Z,2.75
2023-04-27T03:23:07.717Z,2.68
2023-04-27T03:23:38.600Z,2.54
2023-04-27T03:24:09.546Z,2.71
2023-04-27T03:24:40.684Z,2.26
2023-04-27T03:25:11.185Z,2.85
2023-04-27T03:25:41.872Z,2.67
2023-04-27T03:26:12.325Z,2.87
2023-04-27T03:26:43.476Z,2.60
2023-04-27T03:27:13.901Z,3.10
2023-04-27T03:27:44.771Z,1.89
2023-04-27T03:28:15.670Z,2.47
2023-04-27T03:28:46.602Z,3.28
2023-04-27T03:29:17.481Z,3.14
2023-04-27T03:29:48.340Z,2.35
2023-04-27T03:30:19.345Z,2.65
2023-04-27T03:30:50.309Z,2.04
2023-04-27T03:31:21.276Z,2.46
2023-04-27T03:31:51.870Z,3.26
2023-04-27T03:32:22.314Z,2.02
2023-04-27T03:32:53.285Z,2.14
2023-04-27T03:33:24.172Z,2.98
2023-04-27T03:33:55.057Z,2.15
2023-04-27T03:34:25.942Z,3.01
2023-04-27T03:34:56.864Z,2.18
2023-04-27T03:35:27.715Z,2.79
2023-04-27T03:35:58.601Z,2.51
2023-04-27T03:36:29.553Z,2.98
2023-04-27T03:37:00.562Z,2.75
2023-04-27T03:37:31.503Z,2.18
2023-04-27T03:38:02.420Z,2.46
2023-04-27T03:38:33.399Z,2.28
2023-04-27T03:39:04.275Z,2.29
2023-04-27T03:39:35.155Z,2.71
2023-04-27T03:40:06.042Z,3.08
2023-04-27T03:40:36.910Z,2.95
2023-04-27T03:41:07.802Z,2.49
2023-04-27T03:41:38.728Z,3.01
2023-04-27T03:42:09.650Z,3.18
2023-04-27T03:42:40.660Z,2.60
2023-04-27T03:43:11.127Z,2.92
2023-04-27T03:43:42.076Z,1.55
2023-04-27T03:44:13.072Z,2.36
2023-04-27T03:44:44.061Z,2.02
2023-04-27T03:45:14.446Z,2.74
2023-04-27T03:45:45.339Z,2.60
2023-04-27T03:46:16.298Z,2.50
2023-04-27T03:46:47.143Z,1.94
2023-04-27T03:47:17.968Z,2.62
2023-04-27T03:47:48.871Z,2.49
2023-04-27T03:48:19.844Z,3.48
2023-04-27T03:48:50.703Z,3.47
2023-04-27T03:49:21.702Z,3.69
2023-04-27T03:49:52.858Z,2.46
2023-04-27T03:50:23.564Z,2.54
2023-04-27T03:50:54.451Z,3.11
2023-04-27T03:51:25.269Z,1.89
2023-04-27T03:51:56.082Z,2.72
2023-04-27T03:52:26.895Z,3.00
2023-04-27T03:52:57.720Z,4.48
2023-04-27T03:53:28.576Z,3.18
2023-04-27T03:53:59.405Z,3.11
2023-04-27T03:54:30.384Z,2.69
2023-04-27T03:55:01.259Z,3.48
2023-04-27T03:55:32.223Z,2.77
2023-04-27T03:56:03.106Z,3.14
2023-04-27T03:56:34.011Z,2.97
2023-04-27T03:57:04.904Z,3.00
2023-04-27T03:57:35.745Z,3.10
2023-04-27T03:58:06.558Z,3.16
2023-04-27T03:58:37.396Z,2.79
2023-04-27T03:59:08.206Z,2.61
2023-04-27T03:59:39.020Z,2.85
2023-04-27T04:00:09.847Z,2.69
2023-04-27T04:00:40.734Z,2.24
2023-04-27T04:01:11.628Z,3.11
2023-04-27T04:01:42.623Z,3.16
2023-04-27T04:02:13.155Z,2.00
2023-04-27T04:02:43.646Z,2.43
2023-04-27T04:03:14.563Z,2.83
2023-04-27T04:03:45.232Z,2.93
2023-04-27T04:04:15.880Z,1.95
2023-04-27T04:04:46.382Z,1.99
2023-04-27T04:05:16.839Z,2.93
2023-04-27T04:05:47.726Z,3.04
2023-04-27T04:06:18.559Z,2.93
2023-04-27T04:06:49.381Z,3.59
2023-04-27T04:07:20.189Z,2.97
2023-04-27T04:07:51.356Z,2.50
2023-04-27T04:08:21.832Z,3.25
2023-04-27T04:08:53.004Z,2.46
2023-04-27T04:09:24.097Z,3.86
2023-04-27T04:09:54.251Z,3.41
2023-04-27T04:10:24.718Z,3.08
2023-04-27T04:10:55.810Z,3.44
2023-04-27T04:11:26.161Z,2.82
2023-04-27T04:11:56.967Z,3.28
2023-04-27T04:12:27.803Z,2.92
2023-04-27T04:12:58.655Z,3.59
2023-04-27T04:13:29.481Z,3.11
2023-04-27T04:14:00.292Z,3.60
2023-04-27T04:14:31.265Z,2.71
2023-04-27T04:15:02.195Z,2.71
2023-04-27T04:15:33.191Z,3.14
2023-04-27T04:16:03.627Z,3.25
2023-04-27T04:16:34.670Z,3.29
2023-04-27T04:17:05.552Z,3.36
2023-04-27T04:17:36.395Z,2.85
2023-04-27T04:18:07.290Z,2.64
2023-04-27T04:18:38.188Z,3.28
2023-04-27T04:19:08.992Z,3.18
2023-04-27T04:19:39.806Z,3.01
2023-04-27T04:20:10.658Z,3.70
2023-04-27T04:20:41.606Z,3.63
2023-04-27T04:21:12.548Z,3.34
2023-04-27T04:21:43.511Z,3.65
2023-04-27T04:22:14.389Z,3.18
2023-04-27T04:22:45.895Z,3.07
2023-04-27T04:23:15.846Z,2.97
2023-04-27T04:23:46.676Z,2.90
2023-04-27T04:24:17.545Z,3.03
2023-04-27T04:24:48.377Z,2.89
2023-04-27T04:25:19.212Z,3.25
2023-04-27T04:25:50.062Z,2.51
2023-04-27T04:26:20.872Z,3.04
2023-04-27T04:26:51.813Z,3.14
2023-04-27T04:27:22.698Z,3.84
2023-04-27T04:27:53.576Z,4.13
2023-04-27T04:28:24.529Z,4.26
2023-04-27T04:28:55.413Z,3.22
2023-04-27T04:29:26.240Z,4.41
2023-04-27T04:29:57.053Z,3.21
2023-04-27T04:30:27.877Z,3.45
2023-04-27T04:30:58.740Z,2.82
2023-04-27T04:31:29.688Z,3.22
2023-04-27T04:32:00.139Z,4.08
2023-04-27T04:32:30.960Z,3.19
2023-04-27T04:33:02.134Z,3.40
2023-04-27T04:33:32.613Z,4.04
2023-04-27T04:34:03.715Z,3.37
2023-04-27T04:34:34.165Z,3.77
2023-04-27T04:35:05.268Z,4.23
2023-04-27T04:35:35.704Z,4.04
2023-04-27T04:36:06.853Z,3.63
2023-04-27T04:36:37.269Z,3.26
2023-04-27T04:37:08.103Z,4.02
2023-04-27T04:37:38.953Z,3.37
2023-04-27T04:38:09.793Z,5.02
2023-04-27T04:38:40.631Z,3.48
2023-04-27T04:39:11.529Z,3.63
2023-04-27T04:39:42.450Z,3.25
2023-04-27T04:40:13.338Z,3.26
2023-04-27T04:40:45.985Z,3.94
2023-04-27T04:41:15.268Z,2.98
2023-04-27T04:41:46.158Z,3.55
2023-04-27T04:42:16.970Z,3.98
2023-04-27T04:42:47.824Z,3.48
2023-04-27T04:43:18.660Z,4.28
2023-04-27T04:43:49.504Z,3.48
2023-04-27T04:44:20.330Z,4.77
2023-04-27T04:44:51.142Z,3.36
2023-04-27T04:45:22.611Z,3.95
2023-04-27T04:45:53.070Z,3.84
2023-04-27T04:46:24.190Z,3.60
2023-04-27T04:46:54.721Z,3.74
2023-04-27T04:47:25.451Z,3.65
2023-04-27T04:47:56.085Z,3.84
2023-04-27T04:48:26.845Z,3.84
2023-04-27T04:49:00.118Z,3.60
2023-04-27T04:49:27.958Z,3.63
2023-04-27T04:49:58.778Z,4.04
2023-04-27T04:50:29.595Z,4.56
2023-04-27T04:51:00.464Z,3.87
2023-04-27T04:51:31.311Z,3.60
2023-04-27T04:52:01.922Z,3.80
2023-04-27T04:52:32.810Z,4.20
2023-04-27T04:53:03.396Z,4.19
2023-04-27T04:53:34.546Z,4.45
2023-04-27T04:54:05.014Z,3.55
2023-04-27T04:54:35.906Z,4.35
2023-04-27T04:55:06.927Z,3.70
2023-04-27T04:55:37.285Z,4.97
2023-04-27T04:56:08.134Z,4.01
2023-04-27T04:56:38.935Z,4.16
2023-04-27T04:57:09.747Z,3.41
2023-04-27T04:57:40.595Z,3.86
2023-04-27T04:58:11.466Z,4.73
2023-04-27T04:58:42.301Z,4.70
2023-04-27T04:59:13.452Z,3.69
2023-04-27T04:59:44.078Z,4.38
2023-04-27T05:00:14.482Z,5.75
2023-04-27T05:00:45.391Z,4.59
2023-04-27T05:01:16.375Z,4.87
2023-04-27T05:01:47.182Z,3.91
2023-04-27T05:02:18.049Z,4.71
2023-04-27T05:02:48.978Z,3.86
2023-04-27T05:03:19.588Z,4.99
2023-04-27T05:03:50.079Z,4.30
2023-04-27T05:04:20.965Z,4.55
2023-04-27T05:04:51.232Z,4.35
2023-04-27T05:05:22.099Z,4.20
2023-04-27T05:05:53.028Z,4.55
2023-04-27T05:06:24.481Z,5.51
2023-04-27T05:06:54.931Z,5.08
2023-04-27T05:07:26.101Z,4.53
2023-04-27T05:07:56.547Z,5.41
2023-04-27T05:08:27.890Z,5.23
2023-04-27T05:08:58.218Z,5.91
2023-04-27T05:09:29.065Z,4.67
2023-04-27T05:09:59.910Z,4.93
2023-04-27T05:10:30.768Z,4.35
2023-04-27T05:11:01.742Z,4.32
2023-04-27T05:11:32.582Z,4.66
2023-04-27T05:12:03.512Z,5.05
2023-04-27T05:12:34.409Z,5.41
2023-04-27T05:13:07.048Z,4.70
2023-04-27T05:13:36.149Z,4.84
2023-04-27T05:14:07.781Z,4.78
2023-04-27T05:14:37.793Z,5.39
2023-04-27T05:15:08.623Z,5.29
2023-04-27T05:15:39.499Z,4.87
2023-04-27T05:16:10.392Z,5.05
2023-04-27T05:16:41.365Z,4.26
2023-04-27T05:17:11.828Z,5.61
2023-04-27T05:17:42.707Z,5.51
2023-04-27T05:18:13.682Z,4.97
2023-04-27T05:18:44.701Z,5.14
2023-04-27T05:19:15.570Z,4.82
2023-04-27T05:19:45.669Z,4.68
2023-04-27T05:20:16.565Z,4.38
2023-04-27T05:20:48.122Z,5.76
2023-04-27T05:21:17.952Z,4.52
2023-04-27T05:21:48.798Z,4.99
2023-04-27T05:22:19.620Z,5.35
2023-04-27T05:22:50.490Z,5.62
2023-04-27T05:23:21.313Z,4.58
2023-04-27T05:23:52.158Z,4.84
2023-04-27T05:24:23.003Z,5.84
2023-04-27T05:24:53.969Z,5.79
2023-04-27T05:25:25.100Z,5.20
2023-04-27T05:25:55.524Z,5.29
2023-04-27T05:26:26.662Z,6.27
2023-04-27T05:27:00.803Z,5.36
2023-04-27T05:27:28.322Z,5.72
2023-04-27T05:27:58.275Z,5.39
2023-04-27T05:28:29.109Z,4.44
2023-04-27T05:28:59.923Z,5.54
2023-04-27T05:29:30.756Z,6.01
2023-04-27T05:30:01.603Z,5.44
2023-04-27T05:30:32.442Z,4.59
2023-04-27T05:31:03.253Z,5.18
2023-04-27T05:31:34.193Z,5.47
2023-04-27T05:32:04.821Z,5.36
2023-04-27T05:32:35.375Z,5.94
2023-04-27T05:33:06.402Z,5.08
2023-04-27T05:33:36.914Z,5.53
2023-04-27T05:34:08.420Z,6.14
2023-04-27T05:34:38.505Z,5.98
2023-04-27T05:35:08.911Z,5.21
2023-04-27T05:35:39.728Z,5.56
2023-04-27T05:36:10.536Z,5.00
2023-04-27T05:36:41.410Z,5.76
2023-04-27T05:37:12.214Z,5.99
2023-04-27T05:37:43.041Z,5.68
2023-04-27T05:38:14.049Z,5.69
2023-04-27T05:38:44.951Z,5.89
2023-04-27T05:39:16.222Z,5.28
2023-04-27T05:39:46.788Z,5.62
2023-04-27T05:40:19.694Z,5.72
2023-04-27T05:40:48.683Z,6.19
2023-04-27T05:41:19.506Z,6.24
2023-04-27T05:41:50.323Z,5.80
2023-04-27T05:42:21.176Z,5.39
2023-04-27T05:42:52.037Z,5.80
2023-04-27T05:43:22.884Z,5.69
2023-04-27T05:43:53.715Z,6.12
2023-04-27T05:44:24.595Z,5.59
2023-04-27T05:44:55.485Z,5.97
2023-04-27T05:45:26.379Z,5.97
2023-04-27T05:45:57.406Z,6.59
2023-04-27T05:46:27.879Z,5.28
2023-04-27T05:46:58.810Z,5.51
2023-04-27T05:47:29.693Z,6.54
2023-04-27T05:48:00.598Z,5.23
2023-04-27T05:48:31.509Z,5.61
2023-04-27T05:49:02.326Z,5.82
2023-04-27T05:49:33.185Z,5.86
2023-04-27T05:50:04.096Z,5.26
2023-04-27T05:50:35.253Z,5.41
2023-04-27T05:51:05.727Z,5.59
2023-04-27T05:51:36.816Z,5.18
2023-04-27T05:52:07.290Z,5.75
2023-04-27T05:52:38.436Z,5.76
2023-04-27T05:53:08.926Z,5.93
2023-04-27T05:53:39.768Z,5.62
2023-04-27T05:54:10.585Z,5.56
2023-04-27T05:54:41.424Z,5.61
2023-04-27T05:55:12.268Z,5.64
2023-04-27T05:55:43.101Z,5.75
2023-04-27T05:56:13.936Z,5.41
2023-04-27T05:56:45.003Z,6.02
2023-04-27T05:57:15.542Z,4.87
2023-04-27T05:57:47.788Z,6.04
2023-04-27T05:58:18.074Z,5.14
2023-04-27T05:58:47.539Z,6.07
2023-04-27T05:59:18.441Z,6.09
2023-04-27T05:59:49.384Z,5.53
2023-04-27T06:00:20.218Z,5.44
2023-04-27T06:00:51.038Z,5.79
2023-04-27T06:01:21.927Z,6.24
2023-04-27T06:01:52.808Z,6.41
2023-04-27T06:02:23.758Z,5.33
2023-04-27T06:02:54.403Z,5.44
2023-04-27T06:03:25.359Z,6.36
2023-04-27T06:03:55.686Z,5.57
2023-04-27T06:04:26.313Z,6.14
2023-04-27T06:04:57.089Z,6.19
2023-04-27T06:05:27.584Z,5.36
2023-04-27T06:05:59.148Z,6.35
2023-04-27T06:06:29.534Z,5.93
2023-04-27T06:06:59.861Z,5.59
2023-04-27T06:07:30.697Z,6.08
2023-04-27T06:08:01.540Z,5.76
2023-04-27T06:08:32.383Z,6.20
2023-04-27T06:09:03.298Z,5.76
2023-04-27T06:09:34.152Z,6.11
2023-04-27T06:10:05.169Z,5.99
2023-04-27T06:10:35.633Z,5.25
2023-04-27T06:11:06.642Z,5.79
2023-04-27T06:11:37.125Z,5.83
2023-04-27T06:12:08.076Z,6.19
2023-04-27T06:12:38.968Z,6.36
2023-04-27T06:13:09.860Z,5.47
2023-04-27T06:13:40.699Z,5.82
2023-04-27T06:14:11.539Z,5.90
2023-04-27T06:14:42.359Z,6.35
2023-04-27T06:15:13.195Z,6.44
2023-04-27T06:15:44.028Z,6.17
2023-04-27T06:16:14.929Z,7.10
2023-04-27T06:16:46.148Z,6.88
2023-04-27T06:17:16.637Z,6.22
2023-04-27T06:17:47.758Z,6.14
2023-04-27T06:18:18.349Z,6.75
2023-04-27T06:18:49.068Z,6.39
2023-04-27T06:19:19.541Z,6.51
2023-04-27T06:19:50.405Z,5.91
2023-04-27T06:20:21.228Z,7.00
2023-04-27T06:20:52.047Z,5.98
2023-04-27T06:21:22.872Z,6.35
2023-04-27T06:21:53.729Z,5.89
2023-04-27T06:22:24.562Z,5.86
2023-04-27T06:22:55.400Z,6.85
2023-04-27T06:23:26.289Z,6.26
2023-04-27T06:23:57.245Z,6.26
2023-04-27T06:24:28.172Z,6.41
2023-04-27T06:24:59.069Z,5.89
2023-04-27T06:25:30.298Z,6.08
2023-04-27T06:26:00.629Z,6.24
2023-04-27T06:26:31.491Z,5.71
2023-04-27T06:27:02.342Z,6.95
2023-04-27T06:27:33.206Z,6.75
2023-04-27T06:28:04.056Z,7.56
2023-04-27T06:28:34.876Z,5.87
2023-04-27T06:29:05.835Z,6.42
2023-04-27T06:29:36.725Z,7.40
2023-04-27T06:30:07.630Z,6.48
2023-04-27T06:30:39.648Z,6.84
2023-04-27T06:31:09.351Z,6.60
2023-04-27T06:31:40.537Z,6.20
2023-04-27T06:32:10.920Z,6.62
2023-04-27T06:32:41.865Z,6.77
2023-04-27T06:33:12.732Z,7.73
2023-04-27T06:33:43.558Z,7.02
2023-04-27T06:34:14.393Z,7.23
2023-04-27T06:34:45.231Z,7.18
2023-04-27T06:35:16.128Z,7.29
2023-04-27T06:35:47.625Z,6.84
2023-04-27T06:36:17.571Z,6.35
2023-04-27T06:36:48.486Z,7.24
2023-04-27T06:37:19.481Z,6.31
2023-04-27T06:37:49.932Z,6.97
2023-04-27T06:38:20.876Z,6.49
2023-04-27T06:38:51.722Z,6.08
2023-04-27T06:39:22.534Z,7.83
2023-04-27T06:39:53.405Z,7.28
2023-04-27T06:40:24.500Z,7.21
2023-04-27T06:40:55.041Z,7.61
2023-04-27T06:41:25.384Z,7.25
2023-04-27T06:41:56.349Z,7.61
2023-04-27T06:42:27.250Z,6.99
2023-04-27T06:42:58.162Z,7.38
2023-04-27T06:43:29.112Z,6.88
2023-04-27T06:44:00.093Z,7.70
2023-04-27T06:44:31.110Z,7.20
2023-04-27T06:45:01.442Z,7.95
2023-04-27T06:45:32.291Z,7.60
2023-04-27T06:46:03.177Z,7.60
2023-04-27T06:46:33.693Z,7.13
2023-04-27T06:47:04.612Z,8.00
2023-04-27T06:47:35.405Z,7.50
2023-04-27T06:48:06.248Z,7.24
2023-04-27T06:48:37.237Z,7.17
2023-04-27T06:49:08.131Z,7.70
2023-04-27T06:49:39.026Z,7.18
2023-04-27T06:50:10.006Z,6.99
2023-04-27T06:50:41.300Z,7.57
2023-04-27T06:51:11.670Z,7.77
2023-04-27T06:51:42.808Z,7.80